Rachel, Nevada Weather observations

Data are for observation ending at time listed.
 Day   Time    Ave.   Ave.  Ave.  Vector   Max.   Stn.    Total    Solar   Ave.  
  of    of     Air    Rel.  Wind   Wind    Wind   Baro.  Precip.   Rad.    Soil  
Year   Day     Temp.  Hum.  Speed  Dir.    Gust   Pres.                    Temp. 
2015   (PST)    F      %     mph   deg.    mph     mb.     in.     W/m2     F   
------------------------------------------------------------------------------
  87   17:40   75.6    10    8.6   271     15.3   854.0    0.00      36    67.9
  87   17:50   74.2    10    8.4   266     11.4   854.0    0.00      21    67.7
  87   18:00   71.6    11    7.8   268     10.4   853.8    0.00       8    67.4
  87   18:10   69.3    11    8.1   268      9.7   853.7    0.00       3    67.0
  87   18:20   68.2    11    8.3   252     10.6   853.5    0.00       3    66.6
  87   18:30   66.8    13    7.9   232     11.4   853.3    0.00       1    66.3
  87   18:40   66.5    14    9.2   242     15.5   853.3    0.00       0    65.9
  87   18:50   67.8    14   10.5   247     15.9   853.5    0.00       0    65.8
  87   19:00   68.4    14   10.7   233     17.6   853.6    0.00       0    65.7
  87   19:10   67.9    13   11.1   233     20.1   853.6    0.00       0    65.5
  87   19:20   68.5    13   11.9   249     17.7   853.7    0.00       0    65.3
  87   19:30   68.2    13    8.9   266     16.1   853.7    0.00       0    65.3
  87   19:40   67.2    13    9.3   244     16.5   853.7    0.00       0    65.1
  87   19:50   66.9    13    8.1   257     12.6   853.9    0.00       0    64.9
  87   20:00   66.3    13    9.4   256     14.8   853.9    0.00       0    64.7
  87   20:10   67.3    13    9.1   244     13.2   854.0    0.00       0    64.6
  87   20:20   66.8    13    9.3   238     12.8   854.2    0.00       0    64.4
  87   20:30   65.6    13    6.5   256      8.4   854.2    0.00       0    64.2
  87   20:40   61.6    15    5.7   358     13.2   854.4    0.00       0    63.9
  87   20:50   56.9    18    8.2    28     13.4   854.3    0.00       0    63.1
  87   21:00   55.4    19    3.7    32      6.6   854.2    0.00       0    62.6
  87   21:10   53.5    21    1.4     4      3.4   854.3    0.00       0    62.1
  87   21:20   54.0    20    1.7   156      3.9   854.1    0.00       0    61.7
  87   21:30   52.1    22    4.9   168      7.8   854.0    0.00       0    61.4
  87   21:40   51.4    22    7.7   183      9.1   853.8    0.00       0    61.1
  87   21:50   50.6    22    5.8   197      7.1   853.8    0.00       0    60.8
  87   22:00   49.9    23    3.9   254      6.5   853.7    0.00       0    60.5
  87   22:10   47.9    26    2.1   271      6.5   853.9    0.00       0    60.2
  87   22:20   48.9    26    2.9    27     12.3   854.1    0.00       0    59.7
  87   22:30   52.4    23    1.2   262      4.2   854.2    0.00       0    59.5
  87   22:40   50.4    23    7.3   167     12.2   854.2    0.00       0    59.3
  87   22:50   49.9    23    8.5   196     10.6   854.1    0.00       0    59.0
  87   23:00   50.3    22    9.3   187     11.0   854.0    0.00       0    58.9
  87   23:10   49.3    23    6.3   184      8.1   854.1    0.00       0    58.7
  87   23:20   49.0    22    5.5   198      7.1   854.1    0.00       0    58.5
  87   23:30   50.5    21    7.2   194      8.2   854.1    0.00       0    58.3
  87   23:40   50.8    21    7.9   217     10.4   854.2    0.00       0    58.1
  87   23:50   53.0    21    7.4   233     10.7   854.3    0.00       0    58.1
  88    0:00   51.6    22    6.3   265     10.1   854.4    0.00       0    58.0
  88    0:10   49.5    23    4.9   259      9.0   854.5    0.00       0    57.7
  88    0:20   51.5    22    2.0   254      5.6   854.6    0.00       0    57.5
  88    0:30   51.1    22    1.5   259      4.4   854.6    0.00       0    57.4
  88    0:40   50.9    23    2.8   237      7.8   854.5    0.00       0    57.2
  88    0:50   50.0    24    5.0   229      6.9   854.6    0.00       0    57.0
  88    1:00   50.0    24    2.8   252      5.8   854.5    0.00       0    56.9
  88    1:10   49.7    24    4.5   198      6.8   854.5    0.00       0    56.7
  88    1:20   50.0    24    4.1   194      6.2   854.5    0.00       0    56.5
  88    1:30   50.4    24    4.6   230      7.5   854.5    0.00       0    56.4
  88    1:40   50.1    25    6.0   236      8.1   854.4    0.00       0    56.4
  88    1:50   49.7    27    6.8   248      8.8   854.5    0.00       0    56.2
  88    2:00   48.6    27    5.5   261      7.9   854.4    0.00       0    56.1
  88    2:10   44.6    29    2.0   343      6.2   854.4    0.00       0    55.8
  88    2:20   42.8    32    0.8    26      1.8   854.3    0.00       0    55.2
  88    2:30   44.8    30    3.1    29      4.2   854.2    0.00       0    55.0
  88    2:40   47.3    28    3.0   217      4.1   854.1    0.00       0    54.9
  88    2:50   45.3    29    1.3   222      4.5   854.1    0.00       0    54.8
  88    3:00   45.2    31    4.0   267      5.7   854.2    0.00       0    54.6
  88    3:10   44.6    31    4.1   264      6.0   854.2    0.00       0    54.6
  88    3:20   43.5    32    2.1   244      5.2   854.2    0.00       0    54.4
  88    3:30   41.5    34    3.3   285      5.4   854.4    0.00       0    54.1
  88    3:40   37.6    42    3.2   300      6.3   854.3    0.00       0    53.7
  88    3:50   37.0    46    2.9   307      6.6   854.1    0.00       0    53.3
  88    4:00   37.3    45    0.6   293      2.8   854.0    0.00       0    53.1
  88    4:10   38.1    41    2.2   192      6.7   854.0    0.00       0    52.8
  88    4:20   39.6    37    2.5   259      6.1   853.9    0.00       0    52.5
  88    4:30   39.0    39    3.5   342      9.6   853.9    0.00       0    52.3
  88    4:40   37.7    41    0.9   296      2.4   853.8    0.00       0    52.2
  88    4:50   38.5    40    1.8   303      4.7   853.8    0.00       0    52.1
  88    5:00   39.4    39    2.3   321      3.4   853.8    0.00       0    52.0
  88    5:10   38.4    40    2.0   346      7.0   853.8    0.00       0    51.9
  88    5:20   39.9    38    4.1   244      8.1   853.7    0.00       0    51.6
  88    5:30   40.9    36    3.9   219      7.1   853.8    0.00       1    51.5
  88    5:40   39.8    37    1.0   186      2.7   853.9    0.00       4    51.5
  88    5:50   38.0    40    0.6   169      2.0   854.1    0.00      11    51.3
  88    6:00   39.1    38    0.8   169      1.8   854.2    0.00      19    51.1
  88    6:10   40.7    35    0.0   169      1.1   854.3    0.00      46    51.2
  88    6:20   41.8    34    0.6   170      2.6   854.4    0.00      74    51.3
  88    6:30   43.1    34    2.5   172      3.3   854.6    0.00      99    51.7
  88    6:40   45.9    31    0.8   173      1.8   854.9    0.00     114    52.4
  88    6:50   48.4    29    0.7   172      2.1   855.1    0.00     142    53.1
  88    7:00   49.7    27    1.3   172      2.3   855.4    0.00     176    53.8
  88    7:10   51.4    27    1.8   262      4.5   855.7    0.00     202    54.5
  88    7:20   51.4    28    2.8   278      4.7   855.9    0.00     228    55.0
  88    7:30   53.4    27    1.8   272      3.9   855.8    0.00     254    55.6
  88    7:40   56.3    23    2.9   288      5.9   856.2    0.00     279    56.3
  88    7:50   55.3    23    3.6   298      5.8   856.4    0.00     308    56.9
  88    8:00   56.5    23    1.5   315      3.9   856.6    0.00     339    57.4
  88    8:10   57.9    22    1.6   312      3.6   856.8    0.00     353    58.0
  88    8:20   59.2    20    0.7   319      3.4   857.0    0.00     392    58.6
  88    8:30   59.9    20    2.2   318      4.4   857.2    0.00     404    59.3
  88    8:40   59.6    20    3.3   316      5.1   857.3    0.00     443    59.9
  88    8:50   61.2    18    2.4   305      4.5   857.4    0.00     466    60.4
  88    9:00   62.8    17    2.2   291      4.7   857.5    0.00     462    61.0
  88    9:10   64.2    16    2.6   280      6.4   857.6    0.00     488    61.6
  88    9:20   64.7    16    2.6   327      6.0   857.7    0.00     506    62.0
  88    9:30   65.6    15    2.5    61      5.3   857.6    0.00     518    62.2
  88    9:40   66.6    14    1.8    85      4.7   857.6    0.00     518    62.4
  88    9:50   66.9    14    2.6    31      7.0   857.7    0.00     475    62.4
  88   10:00   67.4    14    3.0    47      8.6   858.0    0.00     539    62.3
  88   10:10   67.7    14    4.2    35      6.9   858.0    0.00     591    62.4
  88   10:20   67.9    14    3.2    64      6.4   858.0    0.00     583    62.5
  88   10:30   69.5    13    2.6   109      5.8   858.0    0.00     614    62.8
  88   10:40   70.0    13    1.9   102      5.6   858.2    0.00     625    63.3
  88   10:50   71.2    13    4.1    35      8.3   858.0    0.00     634    63.6
  88   11:00   70.8    13    4.0     1      9.1   857.8    0.00     620    63.9
  88   11:10   71.3    13    6.5    82     13.7   857.8    0.00     640    64.2
  88   11:20   71.5    13    5.9    81      8.8   857.7    0.00     651    64.6
  88   11:30   72.7    12    4.5    41      9.9   857.5    0.00     674    64.8
  88   11:40   72.6    12    6.0    54     11.7   857.3    0.00     682    65.0
  88   11:50   74.2    12    4.2    85     10.8   857.3    0.00     688    65.1
  88   12:00   74.2    12    8.0    67     12.1   857.3    0.00     691    65.4
  88   12:10   73.8    12    5.5   141     15.5   857.4    0.00     647    65.7
  88   12:20   73.7    11    7.5   152     16.4   857.3    0.00     504    66.0
  88   12:30   73.8    11    4.8   112      9.3   857.1    0.00     393    66.1
  88   12:40   73.5    11    6.6    88      9.9   856.9    0.00     406    66.2
  88   12:50   73.6    11    5.0    92     12.6   856.7    0.00     247    66.2
  88   13:00   73.9    11    6.4   159     12.2   856.4    0.00     356    66.3
  88   13:10   74.6    11    6.1   132     12.3   856.2    0.00     490    66.5
  88   13:20   75.8    11    6.6   185     16.5   856.2    0.00     498    66.9
  88   13:30   74.3    11    7.2   143     13.8   856.2    0.00     346    67.1
  88   13:40   74.9    11    8.5   146     18.7   856.0    0.00     494    67.2
  88   13:50   75.3    11   13.2   178     22.1   855.9    0.00     601    67.6
  88   14:00   75.7    11   11.4   170     18.8   855.8    0.00     639    67.9
  88   14:10   76.2    11    9.2   170     17.6   855.7    0.00     599    68.2
  88   14:20   76.3    10    8.9   166     20.4   855.6    0.00     556    68.3
  88   14:30   76.1    10    8.8   142     20.9   855.5    0.00     541    68.4
  88   14:40   75.4    11   12.3   160     22.2   855.4    0.00     493    68.5
  88   14:50   75.8    10    8.7   149     17.5   855.3    0.00     463    68.6
  88   15:00   75.8    10    8.5   133     14.5   855.2    0.00     437    68.7
  88   15:10   76.2    10    9.6   163     19.4   855.1    0.00     415    68.8
  88   15:20   75.8    10   11.1   151     20.0   855.0    0.00     392    69.0
  88   15:30   76.5    10   10.0   163     18.8   854.9    0.00     369    69.0
  88   15:40   76.2    10    9.1   150     17.8   854.9    0.00     346    69.0
  88   15:50   76.0    10   10.1   167     19.0   854.8    0.00     322    69.1
  88   16:00   76.3    10   11.6   181     21.8   854.7    0.00     296    69.1
  88   16:10   75.7    10   10.3   168     16.7   854.7    0.00     269    69.2
  88   16:20   75.8    10    6.3   170     10.5   854.6    0.00     244    69.1
  88   16:30   75.5    10    6.8   162     11.9   854.6    0.00     219    69.0
  88   16:40   75.8    10    5.4   196      9.6   854.5    0.00     192    69.0
  88   16:50   75.6    10    8.4   183     14.8   854.4    0.00     166    68.8
  88   17:00   75.7    10    7.4   168     13.7   854.4    0.00     141    68.8
  88   17:10   75.8    10    6.7   236     12.8   854.4    0.00     116    68.7
  88   17:20   75.4    10    5.0   203      7.4   854.3    0.00      92    68.6
  88   17:30   74.5    10    7.6   174     11.0   854.2    0.00      64    68.4

Return to St. George, Utah graphs page.


Western Regional Climate Center,wrcc@dri.edu